Time;durP1;ratioP1;P1;durP2;ratioP2;P2;SDS_P1;SDS_P2;PMS_P1;PMS_P2;Temp;Humidity;BMP_temperature;BMP_pressure;BME280_temperature;BME280_humidity;BME280_pressure;Samples;Min_cycle;Max_cycle;Signal;HPM_P1;HPM_P2
2023/07/21 00:01:36;;;;;;;3.60;1.90;;;23.10;99.90;;;;;;1936575;72;22158;-72
2023/07/21 00:04:26;;;;;;;6.03;3.40;;;23.30;99.90;;;;;;1906430;75;21082;-71
2023/07/21 00:07:17;;;;;;;8.18;3.52;;;23.20;99.90;;;;;;1883865;75;21054;-72
2023/07/21 00:10:12;;;;;;;8.60;4.25;;;23.10;99.90;;;;;;1887500;75;21562;-72
2023/07/21 00:13:03;;;;;;;2.30;1.80;;;23.00;99.90;;;;;;1885357;75;21787;-71
2023/07/21 00:15:55;;;;;;;1.82;1.40;;;22.90;99.90;;;;;;1902432;74;21139;-71
2023/07/21 00:18:48;;;;;;;2.00;1.30;;;22.90;99.90;;;;;;1905387;75;21123;-72
2023/07/21 00:21:39;;;;;;;1.98;1.65;;;22.90;99.90;;;;;;1900358;75;21098;-71
2023/07/21 00:24:30;;;;;;;3.27;1.42;;;22.80;99.90;;;;;;1903711;75;21642;-71
2023/07/21 00:27:22;;;;;;;2.15;1.50;;;22.80;99.90;;;;;;1887523;75;21626;-71
2023/07/21 00:30:15;;;;;;;2.83;1.50;;;22.90;99.90;;;;;;1894838;75;21099;-72
2023/07/21 00:35:45;;;;;;;4.50;1.52;;;23.00;99.90;;;;;;1943702;72;22150;-72
2023/07/21 00:38:38;;;;;;;3.95;1.80;;;23.00;99.90;;;;;;1904621;75;21216;-72
2023/07/21 00:41:29;;;;;;;2.80;1.50;;;22.90;99.90;;;;;;1892145;75;21125;-72
2023/07/21 00:44:20;;;;;;;1.60;1.50;;;22.90;99.90;;;;;;1915118;75;21130;-72
2023/07/21 00:47:12;;;;;;;2.90;1.50;;;22.90;99.90;;;;;;1895990;73;21146;-72
2023/07/21 00:52:44;;;;;;;2.15;1.30;;;22.90;99.90;;;;;;1903613;72;22191;-72
2023/07/21 00:55:35;;;;;;;2.52;1.22;;;22.80;99.90;;;;;;1896218;75;21581;-71
2023/07/21 00:58:26;;;;;;;2.52;1.47;;;22.90;99.90;;;;;;1907307;73;21105;-72
2023/07/21 01:01:18;;;;;;;3.02;1.50;;;22.80;99.90;;;;;;1893616;75;21035;-72
2023/07/21 01:04:08;;;;;;;1.50;1.30;;;22.70;99.90;;;;;;1903591;74;21518;-72
2023/07/21 01:07:03;;;;;;;3.45;1.50;;;22.80;99.90;;;;;;1916153;75;21147;-72
2023/07/21 01:12:35;;;;;;;10.05;1.67;;;22.60;99.90;;;;;;1922668;72;22475;-72
2023/07/21 01:18:08;;;;;;;3.77;2.35;;;22.60;99.90;;;;;;1944690;72;22260;-72
2023/07/21 01:21:01;;;;;;;3.65;2.02;;;22.60;99.90;;;;;;1904313;75;21155;-72
2023/07/21 01:26:32;;;;;;;3.10;1.50;;;22.50;99.90;;;;;;1943813;72;22294;-72
2023/07/21 01:29:24;;;;;;;4.55;2.33;;;22.50;99.90;;;;;;1917215;74;21199;-72
2023/07/21 01:32:17;;;;;;;2.40;1.80;;;22.40;99.90;;;;;;1932443;74;21086;-72
2023/07/21 01:35:11;;;;;;;2.47;1.65;;;22.50;99.90;;;;;;1909308;74;21178;-72
2023/07/21 01:38:04;;;;;;;2.80;1.80;;;22.50;99.90;;;;;;1916282;75;21121;-72
2023/07/21 01:40:56;;;;;;;3.42;2.10;;;22.40;99.90;;;;;;1914101;75;21638;-72
2023/07/21 01:46:28;;;;;;;2.20;1.42;;;22.10;99.90;;;;;;1952389;72;22628;-72
2023/07/21 01:49:19;;;;;;;3.15;1.70;;;22.20;99.90;;;;;;1909684;75;21091;-72
2023/07/21 01:52:14;;;;;;;2.72;1.42;;;22.20;99.90;;;;;;1906051;75;21533;-72
2023/07/21 01:55:07;;;;;;;2.80;1.80;;;22.10;99.90;;;;;;1913246;75;21109;-72
2023/07/21 01:58:03;;;;;;;2.02;1.52;;;22.10;99.90;;;;;;1906333;75;21197;-72
2023/07/21 02:00:55;;;;;;;3.90;1.92;;;22.10;99.90;;;;;;1857599;76;21175;-72
2023/07/21 02:03:49;;;;;;;2.77;1.70;;;22.20;99.90;;;;;;1905413;75;21160;-72
2023/07/21 02:06:41;;;;;;;2.85;1.60;;;22.10;99.90;;;;;;1892415;75;21636;-72
2023/07/21 02:12:13;;;;;;;4.50;1.57;;;21.90;99.90;;;;;;1916106;72;22287;-72
2023/07/21 02:15:09;;;;;;;5.87;1.65;;;22.00;99.90;;;;;;1901550;75;21631;-72
2023/07/21 02:18:00;;;;;;;2.30;1.32;;;22.00;99.90;;;;;;1912842;75;21131;-72
2023/07/21 02:20:51;;;;;;;3.50;1.62;;;21.80;99.90;;;;;;1909898;75;21117;-72
2023/07/21 02:26:22;;;;;;;4.70;2.17;;;21.90;99.90;;;;;;1948348;72;22184;-73
2023/07/21 02:29:14;;;;;;;1.92;1.55;;;21.90;99.90;;;;;;1929448;73;21186;-72
2023/07/21 02:32:06;;;;;;;2.35;1.60;;;21.90;99.90;;;;;;1935294;73;21101;-72
2023/07/21 02:34:58;;;;;;;3.85;1.90;;;21.90;99.90;;;;;;1926032;73;21632;-72
2023/07/21 02:37:51;;;;;;;1.72;1.45;;;21.80;99.90;;;;;;1937730;73;21184;-72
2023/07/21 02:40:42;;;;;;;5.55;1.60;;;21.80;99.90;;;;;;1927005;73;21098;-72
2023/07/21 02:43:33;;;;;;;2.37;1.32;;;21.80;99.90;;;;;;1928046;73;21097;-72
2023/07/21 02:46:25;;;;;;;2.35;1.50;;;21.80;99.90;;;;;;1918707;73;21107;-72
2023/07/21 02:49:17;;;;;;;2.95;1.57;;;21.80;99.90;;;;;;1927451;73;21101;-72
2023/07/21 02:52:09;;;;;;;2.40;2.00;;;21.80;99.90;;;;;;1925676;73;21096;-73
2023/07/21 02:57:38;;;;;;;2.58;1.60;;;21.80;99.90;;;;;;1938987;72;22349;-72
2023/07/21 03:00:30;;;;;;;1.77;1.25;;;21.80;99.90;;;;;;1942963;73;21225;-72
2023/07/21 03:03:25;;;;;;;3.92;1.80;;;21.70;99.90;;;;;;1928257;73;21039;-72
2023/07/21 03:06:18;;;;;;;2.47;1.80;;;21.70;99.90;;;;;;1923189;73;21104;-71
2023/07/21 03:11:49;;;;;;;1.95;1.60;;;21.60;99.90;;;;;;1944649;72;22286;-72
2023/07/21 03:14:41;;;;;;;2.27;1.40;;;21.60;99.90;;;;;;1919146;73;21161;-72
2023/07/21 03:17:33;;;;;;;1.47;1.35;;;21.50;99.90;;;;;;1934483;73;21128;-71
2023/07/21 03:20:24;;;;;;;3.25;1.37;;;21.40;99.90;;;;;;1920811;73;21121;-72
2023/07/21 03:23:15;;;;;;;3.50;1.60;;;21.30;99.90;;;;;;1918870;73;21549;-72
2023/07/21 03:26:07;;;;;;;3.15;1.35;;;21.30;99.90;;;;;;1920244;73;21093;-72
2023/07/21 03:31:38;;;;;;;2.55;1.60;;;21.10;99.90;;;;;;1939318;72;22286;-72
2023/07/21 03:34:31;;;;;;;3.05;1.40;;;21.10;99.90;;;;;;1897208;75;21109;-72
2023/07/21 03:37:25;;;;;;;3.52;1.70;;;21.20;99.90;;;;;;1914549;75;21179;-73
2023/07/21 03:40:17;;;;;;;3.90;1.80;;;21.20;99.90;;;;;;1901700;75;21590;-73
2023/07/21 03:43:08;;;;;;;3.85;1.57;;;21.20;99.90;;;;;;1892974;75;21158;-72
2023/07/21 03:46:02;;;;;;;3.95;1.98;;;21.10;99.90;;;;;;1913077;75;21706;-72
2023/07/21 03:51:33;;;;;;;2.85;1.67;;;20.90;99.90;;;;;;1940327;72;22141;-72
2023/07/21 03:54:25;;;;;;;2.25;1.50;;;20.80;99.90;;;;;;1922968;73;21151;-72
2023/07/21 03:57:16;;;;;;;3.40;1.60;;;20.80;99.90;;;;;;1917945;73;21687;-72
2023/07/21 04:00:10;;;;;;;1.57;1.27;;;20.70;99.90;;;;;;1918260;73;21181;-73
2023/07/21 04:05:42;;;;;;;3.33;1.52;;;20.50;99.90;;;;;;1940504;72;22201;-72
2023/07/21 04:11:13;;;;;;;4.12;1.50;;;20.40;99.90;;;;;;1937276;72;22162;-72
2023/07/21 04:14:04;;;;;;;3.72;1.65;;;20.40;99.90;;;;;;1902185;75;21114;-71
2023/07/21 04:16:55;;;;;;;4.75;1.60;;;20.40;99.90;;;;;;1914263;75;21171;-72
2023/07/21 04:19:46;;;;;;;4.05;1.52;;;20.50;99.90;;;;;;1862645;75;21210;-71
2023/07/21 04:22:38;;;;;;;1.85;1.42;;;20.50;99.90;;;;;;1886994;75;21046;-72
2023/07/21 04:25:32;;;;;;;1.65;1.30;;;20.50;99.90;;;;;;1887357;75;21554;-72
2023/07/21 04:31:01;;;;;;;2.85;1.30;;;20.50;99.90;;;;;;1949112;72;22185;-72
2023/07/21 04:36:35;;;;;;;2.70;1.50;;;20.80;99.90;;;;;;1921719;72;22125;-71
2023/07/21 04:39:27;;;;;;;3.33;1.60;;;20.90;99.90;;;;;;1890265;74;21117;-72
2023/07/21 04:42:19;;;;;;;2.35;1.30;;;21.00;99.90;;;;;;1904339;75;21078;-71
2023/07/21 04:47:53;;;;;;;2.60;1.27;;;20.90;99.90;;;;;;1933041;72;22676;-72
2023/07/21 04:50:44;;;;;;;5.40;1.65;;;20.90;99.90;;;;;;1888165;74;21137;-72
2023/07/21 04:53:35;;;;;;;4.45;1.40;;;20.90;99.90;;;;;;1889727;74;21122;-72
2023/07/21 04:56:28;;;;;;;2.42;1.30;;;20.90;99.90;;;;;;1901194;75;21176;-77
2023/07/21 05:01:59;;;;;;;2.47;1.50;;;20.90;99.90;;;;;;1950270;72;22276;-74
2023/07/21 05:07:29;;;;;;;1.52;1.32;;;20.90;99.90;;;;;;1943504;72;22260;-74
2023/07/21 05:10:23;;;;;;;4.83;1.70;;;21.00;99.90;;;;;;1893560;74;21608;-76
2023/07/21 05:13:14;;;;;;;6.17;1.62;;;21.00;99.90;;;;;;1908591;75;21468;-76
2023/07/21 05:16:19;;;;;;;5.35;1.57;;;20.90;99.90;;;;;;1907603;75;21118;-75
2023/07/21 05:19:15;;;;;;;4.35;1.32;;;20.80;99.90;;;;;;1901525;73;21160;-75
2023/07/21 05:22:14;;;;;;;4.92;1.57;;;20.70;99.90;;;;;;1893256;73;21605;-75
2023/07/21 05:25:17;;;;;;;4.45;1.40;;;20.60;99.90;;;;;;1895977;75;21107;-75
2023/07/21 05:28:09;;;;;;;4.53;1.32;;;20.50;99.90;;;;;;1915248;75;21144;-75
2023/07/21 05:31:03;;;;;;;3.08;1.35;;;20.50;99.90;;;;;;1916259;74;21106;-75
2023/07/21 05:36:39;;;;;;;1.90;1.25;;;20.80;99.90;;;;;;1944977;72;22186;-76
2023/07/21 05:39:31;;;;;;;4.17;2.00;;;20.80;99.90;;;;;;1901898;75;21090;-75
2023/07/21 05:42:23;;;;;;;2.85;1.40;;;20.80;99.90;;;;;;1885951;75;21159;-75
2023/07/21 05:45:16;;;;;;;3.40;1.60;;;20.90;99.90;;;;;;1893549;75;21232;-75
2023/07/21 05:50:51;;;;;;;5.40;1.60;;;21.00;99.90;;;;;;1942575;72;22169;-75
2023/07/21 05:53:43;;;;;;;3.05;1.50;;;20.90;99.90;;;;;;1915767;73;21156;-75
2023/07/21 05:56:36;;;;;;;3.15;1.57;;;20.80;99.90;;;;;;1922980;73;21173;-76
2023/07/21 05:59:31;;;;;;;3.30;1.47;;;21.00;99.90;;;;;;1915683;75;21502;-75
2023/07/21 06:02:21;;;;;;;7.05;2.33;;;21.00;99.90;;;;;;1918124;73;21084;-76
2023/07/21 06:05:14;;;;;;;5.25;2.00;;;21.00;99.90;;;;;;1916093;73;21115;-71
2023/07/21 06:08:10;;;;;;;4.50;1.98;;;21.00;99.90;;;;;;1912905;73;21276;-71
2023/07/21 06:11:17;;;;;;;;;;;21.00;99.90;;;;;;1918998;75;21083;-74
2023/07/21 06:16:51;;;;;;;5.50;2.37;;;21.10;99.90;;;;;;1956223;72;22180;-73
2023/07/21 06:19:43;;;;;;;4.65;2.00;;;21.20;99.90;;;;;;1927025;73;21184;-74
2023/07/21 06:22:34;;;;;;;4.12;1.70;;;21.30;99.90;;;;;;1933674;73;21101;-74
2023/07/21 06:30:45;;;;;;;3.80;2.27;;;21.30;99.90;;;;;;1934491;72;22125;-74
2023/07/21 06:36:17;;;;;;;6.12;1.98;;;21.50;99.90;;;;;;1934790;72;22212;-74
2023/07/21 06:39:10;;;;;;;6.60;1.75;;;21.50;99.90;;;;;;1891360;75;21195;-74
2023/07/21 06:42:09;;;;;;;2.77;1.95;;;21.40;99.90;;;;;;1900284;75;21054;-74
2023/07/21 06:45:10;;;;;;;3.47;1.92;;;21.50;99.90;;;;;;1830273;78;21192;-77
2023/07/21 06:50:56;;;;;;;3.77;1.85;;;21.40;99.90;;;;;;1943040;72;22609;-76
2023/07/21 06:56:30;;;;;;;4.42;2.05;;;21.70;99.90;;;;;;1939013;72;22663;-76
2023/07/21 06:59:27;;;;;;;3.37;2.00;;;21.80;99.90;;;;;;1898181;75;21106;-76
2023/07/21 07:02:18;;;;;;;8.63;2.52;;;21.90;99.90;;;;;;1915322;75;21143;-78
2023/07/21 07:05:10;;;;;;;4.17;2.20;;;22.00;99.90;;;;;;1907908;75;21027;-78
2023/07/21 07:10:40;;;;;;;3.75;2.15;;;22.20;99.90;;;;;;1946609;72;22134;-76
2023/07/21 07:13:31;;;;;;;3.85;2.15;;;22.30;99.90;;;;;;1892950;73;21242;-77
2023/07/21 07:16:23;;;;;;;5.08;2.20;;;22.40;99.90;;;;;;1881831;76;21228;-78
2023/07/21 07:21:53;;;;;;;3.80;1.87;;;22.80;99.90;;;;;;1940624;72;22969;-77
2023/07/21 07:24:44;;;;;;;3.60;2.30;;;23.00;99.90;;;;;;1889618;75;21177;-76
2023/07/21 07:27:35;;;;;;;3.40;2.15;;;23.00;99.90;;;;;;1885085;75;21119;-77
2023/07/21 07:30:26;;;;;;;3.37;2.40;;;23.10;99.90;;;;;;1899073;75;21151;-77
2023/07/21 07:33:19;;;;;;;4.28;2.72;;;23.00;99.90;;;;;;1881182;75;21071;-77
2023/07/21 07:36:11;;;;;;;4.87;2.30;;;23.00;99.90;;;;;;1897948;75;21121;-77
2023/07/21 07:39:03;;;;;;;3.72;2.30;;;22.80;99.90;;;;;;1899520;75;21570;-77
2023/07/21 07:41:55;;;;;;;3.30;2.20;;;22.90;99.90;;;;;;1915554;75;21699;-77
2023/07/21 07:44:46;;;;;;;4.08;2.30;;;22.90;99.90;;;;;;1889320;75;21098;-77
2023/07/21 07:47:37;;;;;;;5.45;2.25;;;22.80;99.90;;;;;;1885293;75;21111;-76
2023/07/21 07:53:42;;;;;;;4.42;2.52;;;22.80;99.90;;;;;;1954141;72;22198;-76
2023/07/21 07:56:40;;;;;;;6.58;2.55;;;22.80;99.90;;;;;;1913619;73;21121;-78
2023/07/21 07:59:34;;;;;;;3.62;2.35;;;22.80;99.90;;;;;;1937890;73;21619;-76
2023/07/21 08:02:25;;;;;;;4.58;2.30;;;22.80;99.90;;;;;;1916184;73;21192;-76
2023/07/21 08:05:16;;;;;;;4.45;2.27;;;22.90;99.90;;;;;;1916325;73;21160;-76
2023/07/21 08:10:51;;;;;;;5.25;2.15;;;23.00;99.90;;;;;;1952956;72;22135;-77
2023/07/21 08:13:42;;;;;;;6.50;2.33;;;23.10;99.90;;;;;;1883943;74;21156;-76
2023/07/21 08:16:35;;;;;;;4.33;2.30;;;23.20;99.90;;;;;;1895997;75;21534;-76
2023/07/21 08:22:10;;;;;;;3.90;2.10;;;23.40;99.90;;;;;;1959825;72;22243;-76
2023/07/21 08:25:01;;;;;;;3.35;2.00;;;23.50;99.90;;;;;;1918562;73;21130;-77
2023/07/21 08:27:52;;;;;;;7.85;2.20;;;23.60;99.90;;;;;;1916347;73;21106;-76
2023/07/21 08:33:23;;;;;;;4.58;2.00;;;23.80;99.90;;;;;;1933688;72;22593;-85
2023/07/21 08:36:15;;;;;;;6.25;2.20;;;24.00;99.90;;;;;;1890300;75;21066;-77
2023/07/21 08:39:06;;;;;;;3.87;1.98;;;24.10;99.90;;;;;;1901890;75;21134;-75
2023/07/21 08:41:59;;;;;;;5.72;2.30;;;24.20;99.90;;;;;;1895374;75;21184;-76
2023/07/21 08:44:53;;;;;;;5.72;2.27;;;24.20;99.90;;;;;;1895615;75;21165;-77
2023/07/21 08:47:44;;;;;;;3.65;2.05;;;24.20;99.90;;;;;;1889002;75;21117;-76
2023/07/21 08:50:39;;;;;;;5.47;2.20;;;24.20;99.90;;;;;;1901354;75;21604;-76
2023/07/21 08:53:30;;;;;;;4.65;2.12;;;24.20;99.90;;;;;;1892583;75;21362;-76
2023/07/21 08:56:22;;;;;;;3.40;2.02;;;24.20;99.90;;;;;;1896830;75;21094;-76
2023/07/21 09:01:57;;;;;;;7.92;2.30;;;24.10;99.90;;;;;;1929491;72;22246;-75
2023/07/21 09:04:49;;;;;;;6.35;2.20;;;24.20;99.90;;;;;;1906526;75;21183;-76
2023/07/21 09:07:41;;;;;;;9.50;2.60;;;24.20;99.90;;;;;;1897690;75;21203;-77
2023/07/21 09:10:34;;;;;;;5.50;2.10;;;24.30;99.90;;;;;;1903384;75;21098;-76
2023/07/21 09:13:28;;;;;;;4.78;1.90;;;24.20;99.90;;;;;;1900889;75;21172;-77
2023/07/21 09:16:20;;;;;;;6.75;1.80;;;24.30;99.90;;;;;;1888304;75;21520;-77
2023/07/21 09:21:57;;;;;;;4.85;1.80;;;24.70;99.90;;;;;;1946403;72;22260;-75
2023/07/21 09:24:52;;;;;;;5.20;2.10;;;24.90;99.90;;;;;;1931335;73;21097;-76
2023/07/21 09:27:46;;;;;;;6.17;2.05;;;25.10;99.90;;;;;;1926081;73;21089;-76
2023/07/21 09:30:42;;;;;;;4.17;1.90;;;25.20;99.90;;;;;;1937187;73;21208;-76
2023/07/21 09:36:15;;;;;;;7.10;1.70;;;25.20;99.90;;;;;;1933865;72;22302;-75
2023/07/21 09:39:07;;;;;;;3.98;1.95;;;25.30;99.90;;;;;;1881592;75;21201;-76
2023/07/21 09:41:58;;;;;;;4.20;1.30;;;25.20;99.90;;;;;;1893764;75;21135;-76
2023/07/21 09:44:50;;;;;;;2.60;1.25;;;25.10;99.90;;;;;;1889807;75;21665;-76
2023/07/21 09:47:43;;;;;;;1.92;1.10;;;25.30;99.90;;;;;;1877204;75;21195;-76
2023/07/21 09:50:36;;;;;;;2.52;1.27;;;25.50;99.90;;;;;;1894619;75;21146;-76
2023/07/21 09:56:09;;;;;;;1.35;1.00;;;25.70;99.90;;;;;;1932082;72;22664;-75
2023/07/21 10:01:44;;;;;;;3.05;1.00;;;26.20;99.90;;;;;;1948370;72;22272;-75
2023/07/21 10:07:16;;;;;;;2.08;1.00;;;26.50;99.90;;;;;;1927051;72;22182;-75
2023/07/21 10:10:11;;;;;;;1.30;0.80;;;26.60;99.90;;;;;;1922139;73;21106;-75
2023/07/21 10:13:07;;;;;;;1.35;0.90;;;26.70;99.90;;;;;;1912096;74;21186;-76
2023/07/21 10:16:03;;;;;;;1.30;0.90;;;26.70;99.90;;;;;;1918353;74;21131;-76
2023/07/21 10:21:52;;;;;;;1.42;1.10;;;26.70;99.50;;;;;;1947413;72;22178;-75
2023/07/21 10:24:48;;;;;;;2.20;1.00;;;26.60;99.70;;;;;;1901177;75;21114;-75
2023/07/21 10:27:39;;;;;;;1.12;0.82;;;26.60;98.80;;;;;;1899185;75;21102;-75
2023/07/21 10:30:30;;;;;;;1.62;1.07;;;26.60;99.50;;;;;;1895231;75;21636;-75
2023/07/21 10:36:15;;;;;;;4.80;1.37;;;26.60;99.90;;;;;;1948076;72;22083;-75
2023/07/21 10:39:10;;;;;;;2.50;1.17;;;26.70;99.90;;;;;;1892198;75;21223;-75
2023/07/21 10:42:03;;;;;;;4.37;1.25;;;26.70;99.90;;;;;;1901328;75;21102;-75
2023/07/21 10:44:54;;;;;;;1.67;1.00;;;26.70;99.90;;;;;;1910521;75;21167;-75
2023/07/21 10:47:46;;;;;;;1.30;0.90;;;26.80;99.90;;;;;;1905015;75;21139;-75
2023/07/21 10:50:37;;;;;;;1.32;1.07;;;26.80;99.50;;;;;;1889822;75;21118;-75
2023/07/21 10:53:28;;;;;;;1.35;0.90;;;26.80;99.90;;;;;;1901940;75;21131;-83
2023/07/21 10:56:21;;;;;;;2.22;1.05;;;26.90;99.90;;;;;;1904293;74;21038;-84
2023/07/21 10:59:13;;;;;;;2.55;1.17;;;27.10;99.90;;;;;;1909886;75;21182;-81
2023/07/21 11:02:07;;;;;;;2.83;1.35;;;27.10;99.70;;;;;;1896120;75;21161;-81
2023/07/21 11:07:43;;;;;;;2.35;1.12;;;27.20;99.90;;;;;;1967099;72;22147;-82
2023/07/21 11:10:37;;;;;;;2.15;1.35;;;27.30;99.90;;;;;;1917840;73;21150;-82
2023/07/21 11:13:30;;;;;;;3.10;1.20;;;27.30;99.90;;;;;;1915664;75;21160;-81
2023/07/21 11:16:21;;;;;;;2.55;1.50;;;27.30;99.90;;;;;;1919731;73;21082;-81
2023/07/21 11:19:15;;;;;;;1.77;0.98;;;27.30;99.90;;;;;;1916437;73;21165;-81
2023/07/21 11:22:07;;;;;;;2.62;1.40;;;27.40;99.90;;;;;;1917517;73;21301;-81
2023/07/21 11:27:49;;;;;;;1.72;1.17;;;27.50;99.90;;;;;;1935198;72;22827;-80
2023/07/21 11:30:40;;;;;;;2.37;1.10;;;27.40;99.90;;;;;;1905579;74;21213;-81
2023/07/21 11:36:32;;;;;;;3.83;1.30;;;27.60;99.90;;;;;;1929276;72;22333;-80
2023/07/21 11:42:01;;;;;;;3.20;1.30;;;27.60;99.90;;;;;;1933436;72;22593;-81
2023/07/21 11:44:53;;;;;;;3.33;1.40;;;27.70;99.90;;;;;;1884772;75;21102;-81
2023/07/21 11:50:29;;;;;;;1.92;1.20;;;27.80;99.90;;;;;;1954762;72;22565;-80
2023/07/21 11:55:59;;;;;;;4.45;1.30;;;27.80;99.90;;;;;;1953516;72;22193;-82
2023/07/21 11:58:51;;;;;;;1.67;1.17;;;27.80;99.90;;;;;;1919534;73;21569;-81
2023/07/21 12:01:42;;;;;;;2.50;1.47;;;27.80;99.90;;;;;;1931117;73;21103;-82
2023/07/21 12:04:34;;;;;;;3.47;1.40;;;27.90;99.90;;;;;;1924681;73;21163;-81
2023/07/21 12:07:26;;;;;;;2.83;1.40;;;28.00;99.90;;;;;;1914787;74;21050;-81
2023/07/21 12:15:38;;;;;;;2.70;1.30;;;28.10;99.80;;;;;;1939907;72;22251;-81
2023/07/21 12:18:29;;;;;;;3.08;1.27;;;28.10;99.50;;;;;;1905374;75;21151;-82
2023/07/21 12:21:21;;;;;;;3.08;1.35;;;28.10;99.00;;;;;;1905841;75;21135;-81
2023/07/21 12:26:50;;;;;;;2.58;1.25;;;28.40;98.60;;;;;;1945817;72;22321;-81
2023/07/21 12:32:23;;;;;;;2.42;1.40;;;28.40;97.80;;;;;;1930786;72;22194;-81
2023/07/21 12:35:16;;;;;;;4.72;1.80;;;28.50;98.20;;;;;;1884189;75;21163;-80
2023/07/21 12:38:08;;;;;;;3.55;1.47;;;28.50;97.40;;;;;;1881718;75;21148;-81
2023/07/21 12:41:00;;;;;;;3.17;1.30;;;28.50;97.40;;;;;;1902172;75;21194;-81
2023/07/21 12:43:53;;;;;;;3.25;1.30;;;28.50;97.20;;;;;;1902109;75;21196;-81
2023/07/21 12:46:44;;;;;;;1.75;1.40;;;28.50;96.80;;;;;;1903143;75;21155;-81
2023/07/21 12:52:14;;;;;;;2.22;1.55;;;28.50;96.40;;;;;;1958162;72;22271;-81
2023/07/21 12:55:07;;;;;;;2.02;1.42;;;28.50;96.60;;;;;;1903292;75;21180;-82
2023/07/21 12:57:59;;;;;;;2.02;1.30;;;28.60;96.70;;;;;;1919845;74;21189;-82
2023/07/21 13:00:51;;;;;;;2.75;1.80;;;28.60;96.40;;;;;;1904938;75;21157;-83
2023/07/21 13:03:42;;;;;;;2.30;1.52;;;28.70;96.20;;;;;;1910779;74;21162;-82
2023/07/21 13:06:36;;;;;;;1.95;1.40;;;28.70;96.60;;;;;;1925647;74;21188;-81
2023/07/21 13:09:28;;;;;;;2.83;1.37;;;28.80;96.50;;;;;;1905681;74;21547;-82
2023/07/21 13:12:20;;;;;;;1.50;1.20;;;28.70;96.30;;;;;;1903452;75;21211;-81
2023/07/21 13:15:12;;;;;;;2.92;1.52;;;28.80;96.40;;;;;;1908006;74;21142;-82
2023/07/21 13:18:05;;;;;;;4.55;1.60;;;28.80;96.50;;;;;;1903422;75;21125;-82
2023/07/21 13:20:56;;;;;;;2.70;1.50;;;28.70;96.50;;;;;;1903232;75;21137;-82
2023/07/21 13:23:51;;;;;;;2.72;1.52;;;28.80;96.70;;;;;;1903711;75;21189;-82
2023/07/21 13:26:42;;;;;;;4.55;1.52;;;28.80;96.70;;;;;;1868174;75;21107;-82
2023/07/21 13:29:34;;;;;;;1.70;1.32;;;29.00;96.40;;;;;;1903621;75;21558;-82
2023/07/21 13:32:25;;;;;;;4.78;1.50;;;29.00;96.10;;;;;;1903301;75;21180;-81
2023/07/21 13:35:17;;;;;;;3.75;1.85;;;29.10;96.30;;;;;;1903511;75;21134;-82
2023/07/21 13:38:08;;;;;;;3.62;1.77;;;29.10;95.90;;;;;;1903319;75;21619;-82
2023/07/21 13:41:02;;;;;;;5.72;1.90;;;29.10;95.50;;;;;;1903307;75;21118;-82
2023/07/21 13:43:55;;;;;;;2.10;1.42;;;29.20;95.10;;;;;;1903259;75;21136;-82
2023/07/21 13:47:01;;;;;;;2.05;1.60;;;29.30;94.20;;;;;;1903353;75;21133;-81
2023/07/21 13:49:53;;;;;;;3.47;1.77;;;29.40;94.90;;;;;;1903418;75;21096;-81
2023/07/21 13:55:26;;;;;;;3.12;1.47;;;29.60;94.30;;;;;;1951091;72;22243;-82
2023/07/21 13:58:18;;;;;;;2.70;1.82;;;29.70;93.80;;;;;;1904953;75;21176;-81
2023/07/21 14:01:09;;;;;;;3.12;2.00;;;29.90;92.90;;;;;;1899790;75;21117;-81
2023/07/21 14:06:42;;;;;;;1.95;1.57;;;30.30;92.00;;;;;;1948061;72;22222;-81
2023/07/21 14:09:33;;;;;;;3.10;1.45;;;30.40;92.50;;;;;;1903589;75;21511;-81
2023/07/21 14:12:25;;;;;;;2.52;1.65;;;30.50;92.80;;;;;;1898490;75;21181;-81
2023/07/21 14:15:17;;;;;;;2.55;2.00;;;30.50;92.10;;;;;;1893488;75;21264;-81
2023/07/21 14:18:10;;;;;;;2.35;1.77;;;30.60;91.80;;;;;;1893545;75;21113;-81
2023/07/21 14:21:02;;;;;;;2.47;1.85;;;30.90;91.30;;;;;;1893005;75;21191;-81
2023/07/21 14:23:54;;;;;;;4.22;1.80;;;30.90;91.20;;;;;;1895620;75;21182;-82
2023/07/21 14:26:47;;;;;;;2.62;1.85;;;30.90;90.80;;;;;;1874195;76;21580;-83
2023/07/21 14:29:38;;;;;;;4.05;1.60;;;30.90;90.60;;;;;;1887189;75;21601;-81
2023/07/21 14:32:30;;;;;;;4.50;2.10;;;31.20;91.10;;;;;;1905028;75;21134;-81
2023/07/21 14:35:24;;;;;;;3.87;1.67;;;31.20;90.90;;;;;;1883215;75;21098;-81
2023/07/21 14:38:19;;;;;;;2.02;1.60;;;31.20;90.80;;;;;;1896245;75;21106;-81
2023/07/21 14:41:09;;;;;;;4.72;1.80;;;31.20;91.00;;;;;;1904976;75;21117;-80
2023/07/21 14:44:00;;;;;;;3.42;1.50;;;31.20;91.00;;;;;;1896010;75;21136;-82
2023/07/21 14:49:32;;;;;;;2.87;1.60;;;31.20;91.30;;;;;;1954192;72;22308;-80
2023/07/21 14:52:24;;;;;;;2.50;1.70;;;31.50;90.60;;;;;;1894802;74;21204;-81
2023/07/21 14:55:15;;;;;;;1.40;1.25;;;31.60;90.60;;;;;;1900460;75;21143;-82
2023/07/21 14:58:06;;;;;;;3.77;1.50;;;31.60;90.30;;;;;;1899829;75;21167;-82
2023/07/21 15:00:57;;;;;;;3.30;1.50;;;31.70;90.50;;;;;;1883104;75;21663;-82
2023/07/21 15:03:49;;;;;;;2.67;1.60;;;31.60;90.30;;;;;;1882645;75;21145;-82
2023/07/21 15:06:41;;;;;;;2.98;1.77;;;31.70;90.70;;;;;;1882667;75;22198;-81
2023/07/21 15:09:32;;;;;;;3.33;1.60;;;31.80;90.10;;;;;;1882679;76;21208;-81
2023/07/21 15:12:27;;;;;;;2.45;1.52;;;31.50;90.40;;;;;;1883045;75;21114;-81
2023/07/21 15:15:19;;;;;;;2.35;1.50;;;31.40;90.60;;;;;;1883108;75;21184;-83
2023/07/21 15:18:10;;;;;;;3.80;1.70;;;31.70;89.90;;;;;;1883070;75;21215;-81
2023/07/21 15:21:02;;;;;;;2.20;1.67;;;31.90;89.20;;;;;;1904918;75;21228;-81
2023/07/21 15:23:53;;;;;;;4.72;1.95;;;31.80;88.10;;;;;;1899142;75;21188;-81
2023/07/21 15:26:44;;;;;;;2.05;1.70;;;32.20;88.20;;;;;;1915999;75;21098;-82
2023/07/21 15:29:36;;;;;;;2.47;1.70;;;32.30;87.70;;;;;;1893775;75;21145;-81
2023/07/21 15:32:28;;;;;;;1.85;1.75;;;32.00;87.80;;;;;;1892035;75;21133;-82
2023/07/21 15:35:20;;;;;;;3.08;1.77;;;31.90;87.40;;;;;;1883920;75;21196;-82
2023/07/21 15:38:18;;;;;;;2.45;1.60;;;32.60;86.10;;;;;;1896981;75;21164;-82
2023/07/21 15:41:10;;;;;;;1.80;1.47;;;32.40;85.70;;;;;;1893752;75;21130;-82
2023/07/21 15:46:41;;;;;;;2.27;1.57;;;32.60;84.20;;;;;;1934976;72;22186;-82
2023/07/21 15:49:32;;;;;;;2.35;1.50;;;32.60;84.30;;;;;;1892924;75;21217;-81
2023/07/21 15:52:31;;;;;;;3.12;1.60;;;32.80;84.00;;;;;;1886525;75;21168;-81
2023/07/21 15:58:07;;;;;;;2.77;1.40;;;33.00;82.10;;;;;;1932991;72;22304;-80
2023/07/21 16:01:00;;;;;;;3.27;1.80;;;33.30;82.30;;;;;;1904365;74;21147;-81
2023/07/21 16:03:54;;;;;;;5.12;1.90;;;33.10;81.80;;;;;;1904520;75;21120;-81
2023/07/21 16:06:46;;;;;;;4.87;1.80;;;33.00;81.00;;;;;;1905848;74;21090;-80
2023/07/21 16:12:17;;;;;;;3.55;1.50;;;32.70;80.90;;;;;;1948457;72;22204;-81
2023/07/21 16:15:10;;;;;;;2.58;1.60;;;32.60;81.00;;;;;;1915553;75;21102;-81
2023/07/21 16:18:03;;;;;;;2.35;1.40;;;32.50;81.60;;;;;;1918498;73;21087;-81
2023/07/21 16:23:35;;;;;;;1.90;1.70;;;32.80;80.60;;;;;;1937753;72;22231;-80
2023/07/21 16:26:26;;;;;;;3.02;1.50;;;32.80;79.80;;;;;;1898531;74;21122;-81
2023/07/21 16:29:18;;;;;;;3.45;1.50;;;32.80;79.80;;;;;;1887536;74;21079;-80
2023/07/21 16:32:11;;;;;;;1.65;1.35;;;32.80;79.80;;;;;;1878177;75;21117;-81
2023/07/21 16:35:03;;;;;;;2.00;1.55;;;32.80;79.90;;;;;;1885373;75;21094;-80
2023/07/21 16:37:55;;;;;;;2.98;1.70;;;32.60;80.00;;;;;;1901397;74;21543;-80
2023/07/21 16:40:47;;;;;;;1.82;1.40;;;32.40;80.00;;;;;;1915089;74;21114;-81
2023/07/21 16:46:19;;;;;;;3.37;1.70;;;31.90;80.30;;;;;;1942228;72;22648;-80
2023/07/21 16:49:11;;;;;;;2.12;1.30;;;32.20;80.10;;;;;;1912302;74;21180;-79
2023/07/21 16:52:02;;;;;;;3.10;1.72;;;32.10;80.30;;;;;;1905244;74;21110;-79
2023/07/21 16:54:55;;;;;;;1.42;1.10;;;32.10;80.40;;;;;;1907116;74;21115;-80
2023/07/21 16:57:46;;;;;;;4.67;1.98;;;31.90;80.40;;;;;;1917890;74;21125;-80
2023/07/21 17:00:39;;;;;;;2.47;1.65;;;31.60;81.10;;;;;;1915468;74;21149;-80
2023/07/21 17:03:31;;;;;;;3.65;1.50;;;31.40;81.30;;;;;;1907367;74;21128;-80
2023/07/21 17:06:23;;;;;;;4.20;1.75;;;31.40;81.70;;;;;;1922699;74;21114;-80
2023/07/21 17:09:15;;;;;;;3.65;1.82;;;31.60;81.40;;;;;;1918521;74;21507;-80
2023/07/21 17:12:08;;;;;;;3.12;1.50;;;31.60;81.20;;;;;;1915698;74;21145;-80
2023/07/21 17:15:00;;;;;;;2.52;1.70;;;31.20;81.40;;;;;;1907432;74;21110;-80
2023/07/21 17:17:51;;;;;;;1.55;1.45;;;31.30;81.70;;;;;;1903331;74;21097;-79
2023/07/21 17:20:43;;;;;;;2.87;1.62;;;31.10;81.70;;;;;;1919432;74;21156;-81
2023/07/21 17:23:36;;;;;;;3.00;1.82;;;31.00;82.10;;;;;;1918136;74;21101;-80
2023/07/21 17:26:27;;;;;;;2.20;1.62;;;30.80;82.50;;;;;;1906179;74;21106;-80
2023/07/21 17:29:19;;;;;;;1.98;1.35;;;30.80;82.60;;;;;;1921050;74;21124;-79
2023/07/21 17:32:12;;;;;;;1.70;1.52;;;30.50;83.20;;;;;;1909720;74;21199;-81
2023/07/21 17:35:03;;;;;;;2.40;1.20;;;30.20;84.20;;;;;;1905208;74;21156;-80
2023/07/21 17:37:55;;;;;;;3.47;1.70;;;30.10;84.30;;;;;;1911609;74;21119;-81
2023/07/21 17:40:50;;;;;;;2.65;1.27;;;30.00;85.70;;;;;;1909641;74;21153;-82